Time;durP1;ratioP1;P1;durP2;ratioP2;P2;SDS_P1;SDS_P2;PMS_P1;PMS_P2;Temp;Humidity;BMP_temperature;BMP_pressure;BME280_temperature;BME280_humidity;BME280_pressure;Samples;Min_cycle;Max_cycle;Signal;HPM_P1;HPM_P2
2021/01/01 00:02:51;;;;;;;43.92;18.98;;;;;;;0.88;100.00;98306.23;4247838;83;28586;-81
2021/01/01 00:08:53;;;;;;;45.92;19.70;;;;;;;0.65;100.00;98316.46;4249872;83;28651;-80
2021/01/01 00:14:58;;;;;;;48.60;19.90;;;;;;;0.63;100.00;98310.54;4237618;83;43757;-80
2021/01/01 00:20:59;;;;;;;49.80;19.57;;;;;;;0.89;100.00;98313.17;4179562;84;28551;-80
2021/01/01 00:27:01;;;;;;;46.77;19.00;;;;;;;0.89;100.00;98315.02;4334272;81;28548;-80
2021/01/01 00:33:04;;;;;;;48.75;19.07;;;;;;;0.91;100.00;98309.02;4328458;81;28547;-80
2021/01/01 00:39:06;;;;;;;42.45;18.85;;;;;;;0.82;100.00;98321.03;4346997;79;43865;-81
2021/01/01 00:45:08;;;;;;;52.83;20.00;;;;;;;0.87;100.00;98323.62;4365048;81;28550;-79
2021/01/01 00:51:11;;;;;;;43.50;18.17;;;;;;;0.83;100.00;98324.00;4349915;81;28677;-79
2021/01/01 00:57:15;;;;;;;47.88;20.08;;;;;;;0.85;100.00;98326.95;4355893;81;43729;-80
2021/01/01 01:03:17;;;;;;;44.23;18.85;;;;;;;0.68;100.00;98326.67;4335371;81;28619;-80
2021/01/01 01:09:21;;;;;;;51.40;19.77;;;;;;;0.58;100.00;98315.55;4351254;81;28613;-80
2021/01/01 01:15:23;;;;;;;43.00;17.10;;;;;;;0.50;100.00;98325.73;4343186;79;28581;-80
2021/01/01 01:21:26;;;;;;;47.95;18.73;;;;;;;0.72;100.00;98325.80;4338169;81;28579;-79
2021/01/01 01:27:28;;;;;;;49.53;18.40;;;;;;;0.75;100.00;98321.45;4338062;81;28569;-80
2021/01/01 01:33:31;;;;;;;44.88;17.57;;;;;;;0.49;100.00;98324.58;4307172;80;28619;-79
2021/01/01 01:39:33;;;;;;;46.60;18.12;;;;;;;0.65;100.00;98328.86;4345771;81;43731;-81
2021/01/01 01:45:35;;;;;;;44.75;18.32;;;;;;;0.33;100.00;98330.39;4317906;81;28616;-80
2021/01/01 01:51:39;;;;;;;44.50;18.55;;;;;;;0.34;100.00;98333.84;4335501;81;28626;-81
2021/01/01 01:57:42;;;;;;;43.17;18.55;;;;;;;0.46;100.00;98343.47;4357038;81;43689;-81
2021/01/01 02:03:44;;;;;;;47.35;18.85;;;;;;;0.47;100.00;98347.76;4307413;81;28595;-82
2021/01/01 02:09:47;;;;;;;44.42;18.75;;;;;;;0.62;100.00;98350.40;4342001;80;43750;-81
2021/01/01 02:15:50;;;;;;;48.70;19.00;;;;;;;0.60;100.00;98345.80;4324761;81;28582;-82
2021/01/01 02:22:00;;;;;;;48.13;19.12;;;;;;;0.61;100.00;98340.30;4303399;81;28548;-81
2021/01/01 02:28:02;;;;;;;51.88;19.85;;;;;;;0.33;100.00;98341.45;4312928;81;28542;-82
2021/01/01 02:34:04;;;;;;;53.33;20.70;;;;;;;0.18;100.00;98325.09;4308652;80;28650;-81
2021/01/01 02:40:08;;;;;;;49.18;20.50;;;;;;;0.17;100.00;98331.39;4383965;80;28551;-81
2021/01/01 02:46:10;;;;;;;52.05;20.50;;;;;;;0.19;100.00;98332.51;4318954;80;28576;-80
2021/01/01 02:52:12;;;;;;;49.20;19.48;;;;;;;0.11;100.00;98328.14;4252023;83;43808;-79
2021/01/01 02:58:15;;;;;;;55.48;21.12;;;;;;;0.27;100.00;98321.37;4251018;83;44153;-79
2021/01/01 03:04:16;;;;;;;48.65;19.10;;;;;;;0.17;100.00;98327.42;4304346;81;28582;-81
2021/01/01 03:10:19;;;;;;;47.38;19.73;;;;;;;0.17;100.00;98326.10;4286592;82;43770;-80
2021/01/01 03:16:21;;;;;;;55.90;20.57;;;;;;;0.19;100.00;98323.26;4288983;83;44112;-80
2021/01/01 03:22:23;;;;;;;54.63;22.32;;;;;;;0.25;100.00;98329.95;4291278;82;28639;-80
2021/01/01 03:28:25;;;;;;;58.58;22.60;;;;;;;0.37;100.00;98321.08;4321764;81;28552;-81
2021/01/01 03:34:27;;;;;;;56.28;20.85;;;;;;;0.27;100.00;98319.21;4282814;82;28933;-81
2021/01/01 03:40:30;;;;;;;56.53;21.95;;;;;;;0.27;100.00;98334.59;4324181;81;44133;-81
2021/01/01 03:46:32;;;;;;;63.63;23.32;;;;;;;0.29;100.00;98334.91;4278429;81;28672;-81
2021/01/01 03:52:34;;;;;;;56.73;22.15;;;;;;;0.22;100.00;98340.10;4347695;81;28584;-81
2021/01/01 03:58:35;;;;;;;56.53;20.82;;;;;;;0.18;100.00;98336.16;4346429;80;28588;-80
2021/01/01 04:04:37;;;;;;;52.33;20.35;;;;;;;0.24;100.00;98337.58;4353898;80;44155;-80
2021/01/01 04:10:40;;;;;;;60.28;22.42;;;;;;;0.23;100.00;98333.81;4362036;80;28562;-80
2021/01/01 04:16:46;;;;;;;54.38;21.75;;;;;;;0.12;100.00;98331.93;4347028;81;44116;-80
2021/01/01 04:22:48;;;;;;;58.85;21.73;;;;;;;0.35;100.00;98323.58;4288908;81;28588;-84
2021/01/01 04:28:50;;;;;;;51.73;19.62;;;;;;;0.49;100.00;98332.52;4289254;82;44113;-79
2021/01/01 04:34:52;;;;;;;54.60;19.77;;;;;;;0.14;100.00;98327.77;4235453;83;28604;-83
2021/01/01 04:40:55;;;;;;;57.80;21.33;;;;;;;0.39;100.00;98329.64;4240269;83;44080;-81
2021/01/01 04:47:04;;;;;;;57.73;21.33;;;;;;;0.10;100.00;98333.11;4308348;82;44083;-83
2021/01/01 04:53:08;;;;;;;66.12;22.73;;;;;;;-0.02;100.00;98341.97;4311648;82;28550;-81
2021/01/01 04:59:12;;;;;;;56.68;22.42;;;;;;;0.28;100.00;98340.67;4335235;82;44129;-80
2021/01/01 05:05:14;;;;;;;63.60;22.42;;;;;;;0.23;100.00;98346.51;4240339;83;28584;-80
2021/01/01 05:11:21;;;;;;;66.37;23.60;;;;;;;0.33;100.00;98354.68;4267583;83;43774;-80
2021/01/01 05:17:37;;;;;;;59.27;21.80;;;;;;;0.42;100.00;98365.49;4311445;80;28564;-81
2021/01/01 05:23:43;;;;;;;59.60;21.02;;;;;;;0.38;100.00;98371.64;4235428;81;28592;-81
2021/01/01 05:29:57;;;;;;;62.95;21.30;;;;;;;0.46;100.00;98373.89;4307392;82;28569;-82
2021/01/01 05:36:07;;;;;;;58.35;21.23;;;;;;;0.39;100.00;98376.45;4248829;81;44139;-79
2021/01/01 05:42:09;;;;;;;53.73;18.85;;;;;;;0.18;100.00;98379.78;4318374;82;44161;-78
2021/01/01 05:48:11;;;;;;;63.63;22.32;;;;;;;0.35;100.00;98390.53;4312431;81;43793;-81
2021/01/01 05:54:13;;;;;;;54.00;20.02;;;;;;;0.20;100.00;98388.34;4280064;82;44086;-81
2021/01/01 06:00:17;;;;;;;50.90;19.50;;;;;;;0.11;100.00;98385.80;4292689;80;28538;-80
2021/01/01 06:06:22;;;;;;;55.73;21.27;;;;;;;0.19;100.00;98405.22;4317410;81;44103;-79
2021/01/01 06:12:29;;;;;;;54.17;20.13;;;;;;;0.25;100.00;98402.67;4266723;83;35992;-80
2021/01/01 06:18:34;;;;;;;50.83;20.15;;;;;;;0.31;100.00;98410.38;4315959;82;43606;-79
2021/01/01 06:24:43;;;;;;;53.98;20.52;;;;;;;0.08;100.00;98413.09;4244558;81;44108;-80
2021/01/01 06:30:45;;;;;;;53.15;19.55;;;;;;;0.10;100.00;98415.86;4307072;82;28545;-80
2021/01/01 06:36:49;;;;;;;51.40;18.60;;;;;;;0.49;100.00;98397.32;4323100;81;43236;-81
2021/01/01 06:42:55;;;;;;;53.08;19.12;;;;;;;0.37;100.00;98404.39;4246429;83;28576;-80
2021/01/01 06:48:57;;;;;;;46.33;18.17;;;;;;;0.35;100.00;98410.36;4334890;80;44084;-80
2021/01/01 06:55:01;;;;;;;53.70;20.45;;;;;;;0.05;100.00;98419.55;4321156;82;44088;-80
2021/01/01 07:01:16;;;;;;;47.13;19.67;;;;;;;0.37;100.00;98418.13;4329656;81;28625;-80
2021/01/01 07:07:44;;;;;;;54.55;20.90;;;;;;;0.36;100.00;98421.75;4221197;83;28607;-79
2021/01/01 07:13:54;;;;;;;48.45;19.30;;;;;;;0.07;100.00;98427.31;4289598;82;44109;-81
2021/01/01 07:19:56;;;;;;;50.83;19.40;;;;;;;0.44;100.00;98436.73;4330824;80;28531;-83
2021/01/01 07:26:00;;;;;;;51.13;19.60;;;;;;;0.29;100.00;98436.70;4233873;81;44165;-81
2021/01/01 07:32:04;;;;;;;50.70;18.80;;;;;;;0.20;100.00;98438.09;4288029;81;28553;-81
2021/01/01 07:38:08;;;;;;;51.37;19.12;;;;;;;0.26;100.00;98433.91;4299089;80;28538;-81
2021/01/01 07:44:10;;;;;;;50.63;19.00;;;;;;;0.13;100.00;98439.31;4311125;81;28929;-81
2021/01/01 07:50:15;;;;;;;45.40;18.00;;;;;;;0.25;100.00;98448.14;4313744;82;43746;-80
2021/01/01 07:56:21;;;;;;;40.27;14.73;;;;;;;0.24;100.00;98447.81;4282881;83;28655;-83
2021/01/01 08:02:24;;;;;;;42.67;17.95;;;;;;;0.27;100.00;98454.06;4233808;83;28636;-81
2021/01/01 08:08:26;;;;;;;36.95;16.52;;;;;;;0.29;100.00;98449.41;4306629;82;44589;-82
2021/01/01 08:14:28;;;;;;;45.65;17.42;;;;;;;0.37;100.00;98458.59;4231423;83;43733;-82
2021/01/01 08:20:32;;;;;;;45.88;16.97;;;;;;;0.34;100.00;98460.77;4321940;80;43746;-84
2021/01/01 08:26:39;;;;;;;43.80;17.55;;;;;;;0.49;100.00;98461.64;4307679;81;28580;-77
2021/01/01 08:32:42;;;;;;;42.17;16.32;;;;;;;0.46;100.00;98471.23;4331848;81;44458;-81
2021/01/01 08:38:46;;;;;;;44.58;17.25;;;;;;;0.38;100.00;98468.69;4326360;81;28548;-81
2021/01/01 08:44:48;;;;;;;44.77;16.70;;;;;;;0.67;100.00;98454.68;4341518;81;28589;-79
2021/01/01 08:50:52;;;;;;;45.15;18.05;;;;;;;0.75;100.00;98459.58;4333241;81;43737;-78
2021/01/01 08:56:59;;;;;;;41.88;17.23;;;;;;;0.76;100.00;98463.34;4336054;80;44436;-78
2021/01/01 09:03:05;;;;;;;36.85;15.15;;;;;;;0.66;100.00;98462.78;4338610;80;28612;-78
2021/01/01 09:09:09;;;;;;;41.07;15.90;;;;;;;1.10;100.00;98456.70;4327984;81;28575;-76
2021/01/01 09:15:14;;;;;;;44.83;17.67;;;;;;;1.14;100.00;98458.45;4325330;81;28615;-78
2021/01/01 09:21:18;;;;;;;52.15;19.62;;;;;;;1.21;100.00;98456.72;4328035;81;28555;-79
2021/01/01 09:27:22;;;;;;;45.12;17.25;;;;;;;1.19;100.00;98464.03;4250114;83;28619;-78
2021/01/01 09:33:25;;;;;;;40.40;16.15;;;;;;;1.16;100.00;98462.25;4320195;80;28582;-81
2021/01/01 09:39:27;;;;;;;42.95;17.05;;;;;;;1.29;100.00;98465.05;4323617;80;28542;-81
2021/01/01 09:45:30;;;;;;;45.03;17.00;;;;;;;1.44;100.00;98468.20;4310262;82;28589;-81
2021/01/01 09:51:32;;;;;;;47.53;18.55;;;;;;;1.34;100.00;98471.13;4254038;83;28621;-81
2021/01/01 09:57:34;;;;;;;46.98;18.00;;;;;;;1.43;100.00;98465.23;4325392;80;28602;-80
2021/01/01 10:03:36;;;;;;;51.40;20.35;;;;;;;1.53;100.00;98469.22;4313390;80;28616;-80
2021/01/01 10:09:38;;;;;;;50.40;19.20;;;;;;;1.37;100.00;98460.98;4307968;80;28533;-81
2021/01/01 10:15:40;;;;;;;49.30;19.70;;;;;;;1.80;100.00;98461.56;4247470;82;28674;-81
2021/01/01 10:21:44;;;;;;;55.50;20.30;;;;;;;1.84;100.00;98457.20;4307565;80;28571;-81
2021/01/01 10:27:47;;;;;;;49.35;18.42;;;;;;;2.07;100.00;98464.97;4330777;80;28567;-82
2021/01/01 10:33:49;;;;;;;45.70;17.95;;;;;;;2.20;100.00;98454.47;4317809;80;28577;-80
2021/01/01 10:39:51;;;;;;;45.65;18.80;;;;;;;2.34;100.00;98442.63;4345893;80;28587;-80
2021/01/01 10:45:53;;;;;;;43.87;17.70;;;;;;;2.56;100.00;98436.78;4322408;80;28553;-81
2021/01/01 10:51:59;;;;;;;49.88;20.80;;;;;;;2.53;100.00;98429.22;4330404;80;28897;-82
2021/01/01 10:58:01;;;;;;;46.65;19.77;;;;;;;2.83;100.00;98424.18;4318384;81;28622;-83
2021/01/01 11:04:04;;;;;;;43.45;18.40;;;;;;;2.82;100.00;98420.73;4324790;80;28668;-79
2021/01/01 11:10:06;;;;;;;40.00;16.85;;;;;;;2.78;100.00;98416.80;4327441;81;28603;-82
2021/01/01 12:26:14;;;;;;;53.70;21.23;;;;;;;2.21;100.00;98432.77;4321224;81;28532;-82
2021/01/01 12:32:20;;;;;;;58.08;22.45;;;;;;;2.29;100.00;98431.80;4246245;83;28574;-82
2021/01/01 12:38:24;;;;;;;51.87;20.43;;;;;;;1.74;100.00;98434.99;4321749;81;28664;-83
2021/01/01 12:44:26;;;;;;;52.25;21.10;;;;;;;1.86;100.00;98434.80;4240078;82;28568;-82
2021/01/01 12:50:28;;;;;;;49.98;21.10;;;;;;;1.71;100.00;98442.80;4322483;80;28587;-82
2021/01/01 12:56:30;;;;;;;44.73;19.02;;;;;;;1.53;100.00;98448.53;4228973;83;28584;-78
2021/01/01 13:02:32;;;;;;;48.65;21.27;;;;;;;1.41;100.00;98461.92;4318417;80;28576;-79
2021/01/01 13:08:34;;;;;;;49.67;20.52;;;;;;;1.34;100.00;98460.03;4247873;83;28656;-79
2021/01/01 13:14:36;;;;;;;55.17;22.00;;;;;;;1.38;100.00;98463.14;4310340;80;28670;-79
2021/01/01 13:20:40;;;;;;;59.98;23.32;;;;;;;1.35;100.00;98464.33;4232054;83;28558;-80
2021/01/01 13:26:42;;;;;;;56.37;22.55;;;;;;;1.22;100.00;98461.52;4202692;84;28648;-81
2021/01/01 13:32:45;;;;;;;69.77;25.72;;;;;;;1.19;100.00;98460.55;4198085;84;28561;-83
2021/01/01 13:38:47;;;;;;;57.08;21.07;;;;;;;1.17;100.00;98470.02;4357256;79;28993;-81
2021/01/01 13:44:50;;;;;;;57.13;22.85;;;;;;;1.20;100.00;98460.89;4354731;79;28964;-80
2021/01/01 13:50:52;;;;;;;61.25;24.23;;;;;;;1.30;100.00;98461.42;4359503;79;28619;-79
2021/01/01 13:56:54;;;;;;;67.00;25.50;;;;;;;1.17;100.00;98473.98;4351348;80;28578;-81
2021/01/01 14:02:56;;;;;;;69.37;25.23;;;;;;;0.90;100.00;98475.46;4352546;79;28569;-80
2021/01/01 14:09:01;;;;;;;74.50;27.55;;;;;;;0.82;100.00;98472.38;4347914;79;28579;-78
2021/01/01 14:15:05;;;;;;;59.55;22.13;;;;;;;0.88;100.00;98471.66;4346992;79;28588;-78
2021/01/01 14:21:07;;;;;;;75.57;26.15;;;;;;;1.03;100.00;98463.72;4376129;80;43599;-79
2021/01/01 14:27:09;;;;;;;47.17;18.70;;;;;;;0.94;100.00;98472.76;4404658;79;28668;-77
2021/01/01 14:33:11;;;;;;;63.45;24.85;;;;;;;0.94;100.00;98484.19;4407714;79;28607;-78
2021/01/01 14:39:13;;;;;;;63.05;22.87;;;;;;;0.88;100.00;98492.00;4405394;80;28622;-79
2021/01/01 14:45:15;;;;;;;55.20;21.12;;;;;;;0.86;100.00;98499.31;4417447;78;44146;-79
2021/01/01 14:51:18;;;;;;;58.83;23.47;;;;;;;0.90;100.00;98511.20;4406115;79;44076;-79
2021/01/01 14:57:21;;;;;;;64.42;25.43;;;;;;;1.06;100.00;98508.88;4427171;80;28654;-79
2021/01/01 15:03:23;;;;;;;66.40;24.23;;;;;;;0.90;100.00;98512.52;4312598;82;43773;-84
2021/01/01 15:09:25;;;;;;;54.75;20.90;;;;;;;0.65;100.00;98514.06;4252259;81;44083;-83
2021/01/01 15:15:27;;;;;;;52.78;20.85;;;;;;;0.77;100.00;98525.05;4250111;82;28557;-84
2021/01/01 15:21:30;;;;;;;56.45;20.68;;;;;;;0.87;100.00;98520.31;4319207;81;28646;-83
2021/01/01 15:27:32;;;;;;;62.13;22.22;;;;;;;0.88;100.00;98525.09;4335377;81;44435;-83
2021/01/01 15:33:34;;;;;;;54.73;21.73;;;;;;;0.85;100.00;98519.67;4247921;81;44192;-87
2021/01/01 15:39:36;;;;;;;63.85;23.65;;;;;;;0.94;100.00;98524.38;4307809;80;28545;-86
2021/01/01 15:45:38;;;;;;;56.00;20.90;;;;;;;0.99;100.00;98539.72;4256655;81;44149;-85
2021/01/01 15:51:40;;;;;;;54.88;20.72;;;;;;;0.90;100.00;98541.64;4314315;80;44092;-89
2021/01/01 15:57:42;;;;;;;55.55;21.60;;;;;;;0.93;100.00;98549.20;4242811;81;44131;-83
2021/01/01 16:03:44;;;;;;;59.63;22.35;;;;;;;0.77;100.00;98545.70;4316417;80;44282;-86
2021/01/01 16:09:53;;;;;;;61.10;22.13;;;;;;;0.48;100.00;98538.03;4250100;81;44438;-84
2021/01/01 16:16:07;;;;;;;66.77;24.90;;;;;;;0.73;100.00;98538.30;4468336;79;86591;-84
2021/01/01 16:22:15;;;;;;;56.77;21.40;;;;;;;0.51;100.00;98546.09;4400272;80;44120;-85
2021/01/01 16:28:20;;;;;;;60.85;22.05;;;;;;;0.52;100.00;98540.63;4422126;80;44477;-83
2021/01/01 16:34:23;;;;;;;59.08;22.98;;;;;;;0.68;100.00;98533.57;4426876;80;28593;-83
2021/01/01 16:40:26;;;;;;;62.48;23.80;;;;;;;0.75;100.00;98542.93;4329481;81;43332;-85
2021/01/01 16:46:30;;;;;;;55.05;21.87;;;;;;;0.87;100.00;98549.42;4281511;83;44137;-84
2021/01/01 16:52:32;;;;;;;60.63;21.95;;;;;;;0.56;100.00;98566.23;4336023;81;44084;-85
2021/01/01 16:58:35;;;;;;;62.65;22.93;;;;;;;0.60;100.00;98566.19;4277657;83;28559;-86
2021/01/01 17:04:48;;;;;;;61.10;21.00;;;;;;;0.60;100.00;98574.64;4256919;82;44485;-81
2021/01/01 17:10:54;;;;;;;58.55;21.87;;;;;;;0.76;100.00;98581.11;4327012;81;44082;-83
2021/01/01 17:16:57;;;;;;;52.10;19.30;;;;;;;0.65;100.00;98587.66;4331870;81;43729;-83
2021/01/01 17:23:01;;;;;;;57.90;21.07;;;;;;;0.48;100.00;98598.04;4343969;81;37122;-82
2021/01/01 17:29:03;;;;;;;56.73;20.40;;;;;;;0.51;100.00;98603.80;4346318;81;28624;-82
2021/01/01 17:35:07;;;;;;;61.33;23.85;;;;;;;0.58;100.00;98601.78;4339121;81;28585;-83
2021/01/01 17:41:17;;;;;;;60.43;21.55;;;;;;;0.39;100.00;98604.70;4343447;81;28594;-81
2021/01/01 17:47:19;;;;;;;58.70;21.42;;;;;;;0.41;100.00;98605.34;4347527;81;44115;-83
2021/01/01 17:53:21;;;;;;;63.83;22.22;;;;;;;0.56;100.00;98616.50;4353826;81;42930;-82
2021/01/01 17:59:27;;;;;;;55.25;20.95;;;;;;;0.35;100.00;98625.90;4347865;81;28621;-85
2021/01/01 18:05:31;;;;;;;62.85;23.12;;;;;;;0.41;100.00;98633.11;4344335;81;28567;-83
2021/01/01 18:11:37;;;;;;;60.17;21.75;;;;;;;0.55;100.00;98633.38;4274218;82;28644;-83
2021/01/01 18:17:39;;;;;;;59.15;22.45;;;;;;;0.52;100.00;98641.16;4368089;81;28553;-83
2021/01/01 18:23:44;;;;;;;53.90;20.52;;;;;;;0.54;100.00;98648.41;4373542;80;28544;-84
2021/01/01 18:29:50;;;;;;;62.60;21.80;;;;;;;0.71;100.00;98650.13;4287339;83;44459;-83
2021/01/01 18:36:02;;;;;;;51.90;21.07;;;;;;;0.55;100.00;98644.77;4280552;83;43737;-84
2021/01/01 18:42:08;;;;;;;54.70;20.70;;;;;;;0.66;100.00;98644.03;4276938;83;44135;-81
2021/01/01 18:48:11;;;;;;;55.80;20.50;;;;;;;0.66;100.00;98650.65;4296269;83;28590;-82
2021/01/01 18:54:15;;;;;;;57.43;20.75;;;;;;;0.38;100.00;98653.31;4291441;82;28550;-84
2021/01/01 19:00:19;;;;;;;59.00;21.33;;;;;;;0.51;100.00;98659.84;4267965;83;44553;-83
2021/01/01 19:06:46;;;;;;;50.60;19.82;;;;;;;0.50;100.00;98670.10;4286687;83;28583;-83
2021/01/01 19:12:53;;;;;;;57.33;21.27;;;;;;;0.55;100.00;98671.22;4267761;82;28627;-83
2021/01/01 19:18:58;;;;;;;53.65;19.27;;;;;;;0.55;100.00;98668.58;4293288;82;28596;-82
2021/01/01 19:25:06;;;;;;;;;;;;;;;0.60;100.00;98664.09;4296822;82;28560;-83
2021/01/01 19:31:20;;;;;;;61.37;22.58;;;;;;;0.19;100.00;98669.61;4275308;82;44430;-84
2021/01/01 19:37:37;;;;;;;58.15;23.87;;;;;;;0.30;100.00;98676.34;4296083;82;44113;-84
2021/01/01 19:44:07;;;;;;;56.95;21.65;;;;;;;0.45;100.00;98689.14;4286429;82;44094;-85
2021/01/01 19:50:27;;;;;;;56.83;21.17;;;;;;;0.55;100.00;98690.26;4280035;82;44131;-84
2021/01/01 19:56:32;;;;;;;50.55;19.67;;;;;;;0.46;100.00;98698.72;4290278;82;44047;-83
2021/01/01 20:02:40;;;;;;;50.10;20.35;;;;;;;0.43;100.00;98716.27;4261772;82;28558;-84
2021/01/01 20:08:58;;;;;;;49.93;19.92;;;;;;;0.39;100.00;98717.62;4616346;76;85531;-83
2021/01/01 20:15:01;;;;;;;53.28;21.60;;;;;;;0.36;100.00;98727.20;4503511;78;44017;-84
2021/01/01 20:21:11;;;;;;;53.38;20.65;;;;;;;0.10;100.00;98716.42;4512385;78;44086;-82
2021/01/01 20:27:16;;;;;;;56.13;22.62;;;;;;;0.27;100.00;98723.78;4501208;78;44113;-84
2021/01/01 20:33:23;;;;;;;58.78;22.00;;;;;;;0.41;100.00;98728.34;4497843;78;28636;-83
2021/01/01 20:39:50;;;;;;;51.58;20.68;;;;;;;0.05;100.00;98733.27;4510242;78;43573;-83
2021/01/01 20:59:05;;;;;;;53.63;21.80;;;;;;;-0.11;100.00;98760.58;4509607;78;44101;-83
2021/01/01 21:05:11;;;;;;;55.70;21.02;;;;;;;-0.18;100.00;98769.68;4497809;78;28625;-83
2021/01/01 21:11:33;;;;;;;56.23;21.90;;;;;;;-0.02;100.00;98770.98;4493192;78;28571;-82
2021/01/01 21:17:44;;;;;;;56.90;22.27;;;;;;;-0.04;100.00;98776.09;4484014;78;44075;-82
2021/01/01 21:24:13;;;;;;;51.05;21.37;;;;;;;-0.19;100.00;98786.53;4488675;78;43609;-83
2021/01/01 21:30:56;;;;;;;55.25;22.13;;;;;;;-0.01;100.00;98778.39;4490902;78;44097;-81
2021/01/01 21:37:48;;;;;;;61.42;22.67;;;;;;;-0.03;100.00;98781.71;4448192;78;44460;-82
2021/01/01 21:44:02;;;;;;;53.17;21.73;;;;;;;-0.19;100.00;98780.77;4487128;78;44083;-82
2021/01/01 21:50:06;;;;;;;50.67;20.90;;;;;;;0.19;100.00;98793.40;4496363;78;44424;-81
2021/01/01 21:56:20;;;;;;;55.20;19.83;;;;;;;0.17;100.00;98789.27;4479325;78;28612;-81
2021/01/01 22:02:30;;;;;;;49.80;19.70;;;;;;;-0.10;100.00;98793.97;4491052;78;44066;-80
2021/01/01 22:08:35;;;;;;;53.60;21.60;;;;;;;-0.04;100.00;98800.73;4498039;78;44121;-80
2021/01/01 22:15:00;;;;;;;56.83;22.00;;;;;;;-0.22;100.00;98804.86;4497564;78;44109;-81
2021/01/01 22:21:13;;;;;;;57.25;20.72;;;;;;;-0.27;100.00;98800.59;4496612;78;44128;-82
2021/01/01 22:27:15;;;;;;;52.90;21.23;;;;;;;-0.25;100.00;98791.99;4499343;78;44199;-80
2021/01/01 22:33:17;;;;;;;53.15;20.65;;;;;;;-0.20;100.00;98800.26;4504202;78;44128;-80
2021/01/01 22:39:21;;;;;;;56.00;22.35;;;;;;;0.04;100.00;98802.52;4508095;78;44186;-80
2021/01/01 22:45:25;;;;;;;56.68;20.52;;;;;;;0.02;100.00;98801.03;4497750;78;44102;-81
2021/01/01 22:51:33;;;;;;;52.65;21.12;;;;;;;-0.05;100.00;98780.58;4491692;78;44080;-81
2021/01/01 22:57:44;;;;;;;60.12;21.48;;;;;;;-0.03;100.00;98782.55;4498437;78;44081;-80
2021/01/01 23:03:55;;;;;;;55.88;21.33;;;;;;;0.11;100.00;98795.58;4373062;81;44105;-81
2021/01/01 23:10:02;;;;;;;57.75;20.92;;;;;;;0.12;100.00;98805.16;4305038;82;44074;-81
2021/01/01 23:16:07;;;;;;;55.08;19.57;;;;;;;0.22;100.00;98800.98;4313564;81;44104;-80
2021/01/01 23:22:12;;;;;;;58.55;21.82;;;;;;;0.08;100.00;98806.98;4294000;81;44171;-80
2021/01/01 23:28:47;;;;;;;55.47;21.20;;;;;;;-0.21;100.00;98807.86;4318582;81;28540;-80
2021/01/01 23:35:01;;;;;;;47.88;19.00;;;;;;;-0.30;100.00;98818.91;4316962;81;28536;-80
2021/01/01 23:41:05;;;;;;;57.90;22.05;;;;;;;-0.12;100.00;98806.50;4379957;80;44107;-80
2021/01/01 23:47:10;;;;;;;57.10;20.55;;;;;;;0.05;100.00;98816.55;4366710;80;44117;-81
2021/01/01 23:53:12;;;;;;;58.67;22.47;;;;;;;-0.26;100.00;98822.05;4386660;80;28631;-81
2021/01/01 23:59:15;;;;;;;48.78;19.60;;;;;;;-0.23;100.00;98825.67;4328274;81;43823;-82
